sensor_id;sensor_type;location;lat;lon;timestamp;pressure;altitude;pressure_sealevel;temperature;humidity
74542;BME280;63015;45.378;20.360;2023-06-10T00:01:50;100201.63;;;19.22;72.56
74542;BME280;63015;45.378;20.360;2023-06-10T00:03:51;100204.44;;;19.17;73.08
74542;BME280;63015;45.378;20.360;2023-06-10T00:05:54;100191.47;;;19.11;73.00
74542;BME280;63015;45.378;20.360;2023-06-10T00:07:55;100199.41;;;19.11;72.69
74542;BME280;63015;45.378;20.360;2023-06-10T00:09:56;100202.84;;;19.13;73.23
74542;BME280;63015;45.378;20.360;2023-06-10T00:11:57;100197.81;;;19.07;73.23
74542;BME280;63015;45.378;20.360;2023-06-10T00:14:00;100195.19;;;19.07;72.91
74542;BME280;63015;45.378;20.360;2023-06-10T00:16:00;100195.38;;;19.02;73.09
74542;BME280;63015;45.378;20.360;2023-06-10T00:18:01;100192.78;;;19.01;73.03
74542;BME280;63015;45.378;20.360;2023-06-10T00:20:02;100196.28;;;19.01;73.10
74542;BME280;63015;45.378;20.360;2023-06-10T00:22:09;100194.56;;;19.00;73.04
74542;BME280;63015;45.378;20.360;2023-06-10T00:24:11;100199.03;;;18.98;73.10
74542;BME280;63015;45.378;20.360;2023-06-10T00:26:14;100201.81;;;18.95;73.14
74542;BME280;63015;45.378;20.360;2023-06-10T00:28:18;100200.16;;;18.93;73.29
74542;BME280;63015;45.378;20.360;2023-06-10T00:30:18;100199.50;;;18.86;73.67
74542;BME280;63015;45.378;20.360;2023-06-10T00:32:19;100201.25;;;18.85;73.41
74542;BME280;63015;45.378;20.360;2023-06-10T00:34:20;100200.56;;;18.82;73.67
74542;BME280;63015;45.378;20.360;2023-06-10T00:36:21;100193.53;;;18.81;73.68
74542;BME280;63015;45.378;20.360;2023-06-10T00:38:21;100195.31;;;18.80;73.68
74542;BME280;63015;45.378;20.360;2023-06-10T00:40:22;100186.66;;;18.77;73.86
74542;BME280;63015;45.378;20.360;2023-06-10T00:42:23;100196.41;;;18.74;74.04
74542;BME280;63015;45.378;20.360;2023-06-10T00:44:24;100191.28;;;18.70;73.58
74542;BME280;63015;45.378;20.360;2023-06-10T00:46:25;100195.72;;;18.69;73.50
74542;BME280;63015;45.378;20.360;2023-06-10T00:48:30;100188.84;;;18.65;74.02
74542;BME280;63015;45.378;20.360;2023-06-10T00:50:31;100192.47;;;18.63;74.25
74542;BME280;63015;45.378;20.360;2023-06-10T00:52:32;100187.19;;;18.63;74.08
74542;BME280;63015;45.378;20.360;2023-06-10T00:54:33;100193.44;;;18.60;73.94
74542;BME280;63015;45.378;20.360;2023-06-10T00:56:35;100195.09;;;18.63;74.04
74542;BME280;63015;45.378;20.360;2023-06-10T00:58:36;100187.97;;;18.65;73.96
74542;BME280;63015;45.378;20.360;2023-06-10T01:00:37;100188.03;;;18.63;73.91
74542;BME280;63015;45.378;20.360;2023-06-10T01:02:37;100178.53;;;18.59;74.27
74542;BME280;63015;45.378;20.360;2023-06-10T01:04:38;100181.28;;;18.56;74.32
74542;BME280;63015;45.378;20.360;2023-06-10T01:06:45;100184.66;;;18.60;74.15
74542;BME280;63015;45.378;20.360;2023-06-10T01:09:00;100178.66;;;18.56;74.44
74542;BME280;63015;45.378;20.360;2023-06-10T01:11:04;100172.56;;;18.54;74.03
74542;BME280;63015;45.378;20.360;2023-06-10T01:13:10;100171.75;;;18.52;74.73
74542;BME280;63015;45.378;20.360;2023-06-10T01:15:12;100172.63;;;18.52;74.36
74542;BME280;63015;45.378;20.360;2023-06-10T01:17:13;100167.34;;;18.52;74.44
74542;BME280;63015;45.378;20.360;2023-06-10T01:19:16;100170.91;;;18.51;74.29
74542;BME280;63015;45.378;20.360;2023-06-10T01:21:22;100171.66;;;18.55;74.23
74542;BME280;63015;45.378;20.360;2023-06-10T01:23:27;100167.50;;;18.48;74.28
74542;BME280;63015;45.378;20.360;2023-06-10T01:25:28;100170.22;;;18.46;75.07
74542;BME280;63015;45.378;20.360;2023-06-10T01:27:33;100180.72;;;18.48;74.86
74542;BME280;63015;45.378;20.360;2023-06-10T01:29:50;100171.97;;;18.46;75.02
74542;BME280;63015;45.378;20.360;2023-06-10T01:32:23;100167.56;;;18.46;75.11
74542;BME280;63015;45.378;20.360;2023-06-10T01:34:21;100175.59;;;18.43;74.66
74542;BME280;63015;45.378;20.360;2023-06-10T01:36:24;100172.03;;;18.44;74.62
74542;BME280;63015;45.378;20.360;2023-06-10T01:38:27;100173.75;;;18.45;75.10
74542;BME280;63015;45.378;20.360;2023-06-10T01:40:30;100171.13;;;18.45;75.05
74542;BME280;63015;45.378;20.360;2023-06-10T01:42:33;100179.03;;;18.45;75.45
74542;BME280;63015;45.378;20.360;2023-06-10T01:44:33;100178.06;;;18.48;74.93
74542;BME280;63015;45.378;20.360;2023-06-10T01:46:35;100172.63;;;18.52;74.96
74542;BME280;63015;45.378;20.360;2023-06-10T01:48:36;100174.44;;;18.50;74.59
74542;BME280;63015;45.378;20.360;2023-06-10T01:50:37;100205.78;;;18.36;76.13
74542;BME280;63015;45.378;20.360;2023-06-10T01:52:38;100188.06;;;18.39;75.30
74542;BME280;63015;45.378;20.360;2023-06-10T01:54:39;100185.41;;;18.39;75.17
74542;BME280;63015;45.378;20.360;2023-06-10T01:56:40;100188.91;;;18.40;75.44
74542;BME280;63015;45.378;20.360;2023-06-10T01:58:40;100202.22;;;18.37;75.69
74542;BME280;63015;45.378;20.360;2023-06-10T02:00:41;100203.06;;;18.37;75.78
74542;BME280;63015;45.378;20.360;2023-06-10T02:02:43;100203.19;;;18.34;75.97
74542;BME280;63015;45.378;20.360;2023-06-10T02:04:43;100194.25;;;18.38;75.52
74542;BME280;63015;45.378;20.360;2023-06-10T02:06:44;100209.88;;;18.43;75.01
74542;BME280;63015;45.378;20.360;2023-06-10T02:08:45;100204.44;;;18.48;75.17
74542;BME280;63015;45.378;20.360;2023-06-10T02:10:46;100204.38;;;18.49;74.73
74542;BME280;63015;45.378;20.360;2023-06-10T02:12:46;100205.13;;;18.53;74.79
74542;BME280;63015;45.378;20.360;2023-06-10T02:14:47;100200.75;;;18.53;74.76
74542;BME280;63015;45.378;20.360;2023-06-10T02:16:48;100203.38;;;18.53;74.80
74542;BME280;63015;45.378;20.360;2023-06-10T02:18:49;100201.59;;;18.54;74.72
74542;BME280;63015;45.378;20.360;2023-06-10T02:20:49;100197.13;;;18.56;74.72
74542;BME280;63015;45.378;20.360;2023-06-10T02:22:50;100199.31;;;18.45;75.71
74542;BME280;63015;45.378;20.360;2023-06-10T02:24:50;100204.44;;;18.48;75.02
74542;BME280;63015;45.378;20.360;2023-06-10T02:26:51;100206.19;;;18.49;74.90
74542;BME280;63015;45.378;20.360;2023-06-10T02:28:52;100209.63;;;18.51;75.27
74542;BME280;63015;45.378;20.360;2023-06-10T02:30:53;100202.56;;;18.51;75.33
74542;BME280;63015;45.378;20.360;2023-06-10T02:32:55;100209.50;;;18.54;74.94
74542;BME280;63015;45.378;20.360;2023-06-10T02:34:58;100208.47;;;18.58;75.05
74542;BME280;63015;45.378;20.360;2023-06-10T02:37:02;100211.84;;;18.62;74.91
74542;BME280;63015;45.378;20.360;2023-06-10T02:39:03;100225.75;;;18.67;75.03
74542;BME280;63015;45.378;20.360;2023-06-10T02:41:05;100224.63;;;18.72;74.93
74542;BME280;63015;45.378;20.360;2023-06-10T02:43:06;100217.59;;;18.73;74.85
74542;BME280;63015;45.378;20.360;2023-06-10T02:45:07;100216.47;;;18.79;75.12
74542;BME280;63015;45.378;20.360;2023-06-10T02:47:13;100214.66;;;18.81;75.03
74542;BME280;63015;45.378;20.360;2023-06-10T02:49:14;100225.03;;;18.85;74.63
74542;BME280;63015;45.378;20.360;2023-06-10T02:51:15;100225.00;;;18.87;74.53
74542;BME280;63015;45.378;20.360;2023-06-10T02:53:19;100224.03;;;18.89;74.72
74542;BME280;63015;45.378;20.360;2023-06-10T02:55:26;100224.03;;;18.89;74.75
74542;BME280;63015;45.378;20.360;2023-06-10T02:57:30;100220.44;;;18.92;74.96
74542;BME280;63015;45.378;20.360;2023-06-10T02:59:31;100217.78;;;18.92;74.98
74542;BME280;63015;45.378;20.360;2023-06-10T03:01:33;100216.75;;;18.96;74.75
74542;BME280;63015;45.378;20.360;2023-06-10T03:03:39;100218.19;;;19.03;74.29
74542;BME280;63015;45.378;20.360;2023-06-10T03:05:44;100225.94;;;19.08;74.51
74542;BME280;63015;45.378;20.360;2023-06-10T03:07:46;100224.28;;;19.05;74.46
74542;BME280;63015;45.378;20.360;2023-06-10T03:09:49;100225.28;;;19.03;75.20
74542;BME280;63015;45.378;20.360;2023-06-10T03:11:50;100227.06;;;19.02;75.34
74542;BME280;63015;45.378;20.360;2023-06-10T03:13:50;100222.63;;;19.03;75.35
74542;BME280;63015;45.378;20.360;2023-06-10T03:15:53;100224.16;;;19.09;75.52
74542;BME280;63015;45.378;20.360;2023-06-10T03:17:56;100219.84;;;19.06;75.92
74542;BME280;63015;45.378;20.360;2023-06-10T03:19:57;100222.09;;;19.17;75.78
74542;BME280;63015;45.378;20.360;2023-06-10T03:22:12;100222.63;;;19.25;76.30
74542;BME280;63015;45.378;20.360;2023-06-10T03:24:18;100224.91;;;19.34;75.56
74542;BME280;63015;45.378;20.360;2023-06-10T03:26:18;100211.75;;;19.33;76.42
74542;BME280;63015;45.378;20.360;2023-06-10T03:28:22;100223.00;;;19.38;76.81
74542;BME280;63015;45.378;20.360;2023-06-10T03:30:22;100218.69;;;19.35;78.06
74542;BME280;63015;45.378;20.360;2023-06-10T03:32:23;100220.00;;;19.25;78.56
74542;BME280;63015;45.378;20.360;2023-06-10T03:34:24;100224.44;;;19.25;78.29
74542;BME280;63015;45.378;20.360;2023-06-10T03:36:25;100216.94;;;19.36;77.33
74542;BME280;63015;45.378;20.360;2023-06-10T03:38:29;100217.41;;;19.46;77.00
74542;BME280;63015;45.378;20.360;2023-06-10T03:40:30;100219.72;;;19.53;76.63
74542;BME280;63015;45.378;20.360;2023-06-10T03:42:32;100224.69;;;19.61;76.07
74542;BME280;63015;45.378;20.360;2023-06-10T03:44:33;100224.59;;;19.64;76.27
74542;BME280;63015;45.378;20.360;2023-06-10T03:46:34;100229.06;;;19.62;76.26
74542;BME280;63015;45.378;20.360;2023-06-10T03:48:36;100237.44;;;19.51;76.14
74542;BME280;63015;45.378;20.360;2023-06-10T03:50:37;100243.34;;;19.58;75.94
74542;BME280;63015;45.378;20.360;2023-06-10T03:52:38;100250.28;;;19.61;75.58
74542;BME280;63015;45.378;20.360;2023-06-10T03:54:40;100243.75;;;19.47;76.58
74542;BME280;63015;45.378;20.360;2023-06-10T03:56:41;100250.44;;;19.56;76.61
74542;BME280;63015;45.378;20.360;2023-06-10T03:58:41;100248.72;;;19.55;77.24
74542;BME280;63015;45.378;20.360;2023-06-10T04:00:42;100253.09;;;19.56;77.77
74542;BME280;63015;45.378;20.360;2023-06-10T04:02:43;100253.22;;;19.53;78.37
74542;BME280;63015;45.378;20.360;2023-06-10T04:05:01;100248.00;;;19.51;78.76
74542;BME280;63015;45.378;20.360;2023-06-10T04:07:01;100245.75;;;19.63;77.93
74542;BME280;63015;45.378;20.360;2023-06-10T04:09:02;100240.06;;;19.74;77.29
74542;BME280;63015;45.378;20.360;2023-06-10T04:11:03;100236.28;;;19.79;77.47
74542;BME280;63015;45.378;20.360;2023-06-10T04:13:04;100230.84;;;19.84;77.29
74542;BME280;63015;45.378;20.360;2023-06-10T04:15:10;100232.41;;;19.88;77.30
74542;BME280;63015;45.378;20.360;2023-06-10T04:17:11;100223.56;;;19.89;77.50
74542;BME280;63015;45.378;20.360;2023-06-10T04:19:12;100222.50;;;19.93;77.72
74542;BME280;63015;45.378;20.360;2023-06-10T04:21:13;100219.00;;;19.93;77.89
74542;BME280;63015;45.378;20.360;2023-06-10T04:23:13;100224.88;;;19.99;77.68
74542;BME280;63015;45.378;20.360;2023-06-10T04:25:16;100226.72;;;19.97;78.78
74542;BME280;63015;45.378;20.360;2023-06-10T04:27:17;100227.13;;;20.09;77.42
74542;BME280;63015;45.378;20.360;2023-06-10T04:29:19;100226.88;;;20.15;77.35
74542;BME280;63015;45.378;20.360;2023-06-10T04:31:19;100235.53;;;20.18;77.65
74542;BME280;63015;45.378;20.360;2023-06-10T04:33:21;100235.19;;;20.26;77.09
74542;BME280;63015;45.378;20.360;2023-06-10T04:35:22;100233.47;;;20.25;77.95
74542;BME280;63015;45.378;20.360;2023-06-10T04:37:23;100242.78;;;20.34;77.62
74542;BME280;63015;45.378;20.360;2023-06-10T04:39:24;100239.84;;;20.40;77.28
74542;BME280;63015;45.378;20.360;2023-06-10T04:41:25;100239.22;;;20.54;77.05
74542;BME280;63015;45.378;20.360;2023-06-10T04:43:26;100243.25;;;20.63;76.87
74542;BME280;63015;45.378;20.360;2023-06-10T04:45:29;100245.06;;;20.62;77.77
74542;BME280;63015;45.378;20.360;2023-06-10T04:47:30;100248.72;;;20.79;77.20
74542;BME280;63015;45.378;20.360;2023-06-10T04:49:33;100241.06;;;21.11;76.39
74542;BME280;63015;45.378;20.360;2023-06-10T04:51:36;100246.09;;;21.54;75.62
74542;BME280;63015;45.378;20.360;2023-06-10T04:53:38;100237.19;;;21.55;74.69
74542;BME280;63015;45.378;20.360;2023-06-10T04:55:38;100244.44;;;21.51;75.19
74542;BME280;63015;45.378;20.360;2023-06-10T04:57:39;100242.69;;;21.32;75.30
74542;BME280;63015;45.378;20.360;2023-06-10T04:59:40;100241.69;;;21.16;75.63
74542;BME280;63015;45.378;20.360;2023-06-10T05:01:41;100244.28;;;21.17;75.10
74542;BME280;63015;45.378;20.360;2023-06-10T05:03:41;100248.00;;;21.13;75.38
74542;BME280;63015;45.378;20.360;2023-06-10T05:05:42;100256.94;;;21.11;75.11
74542;BME280;63015;45.378;20.360;2023-06-10T05:07:42;100258.31;;;20.81;75.40
74542;BME280;63015;45.378;20.360;2023-06-10T05:09:43;100260.44;;;20.33;76.72
74542;BME280;63015;45.378;20.360;2023-06-10T05:11:43;100257.63;;;20.57;76.17
74542;BME280;63015;45.378;20.360;2023-06-10T05:13:45;100267.59;;;20.71;75.94
74542;BME280;63015;45.378;20.360;2023-06-10T05:15:45;100264.59;;;20.79;75.45
74542;BME280;63015;45.378;20.360;2023-06-10T05:17:46;100251.44;;;20.77;75.83
74542;BME280;63015;45.378;20.360;2023-06-10T05:19:47;100256.63;;;20.80;75.44
74542;BME280;63015;45.378;20.360;2023-06-10T05:21:48;100252.53;;;20.73;75.95
74542;BME280;63015;45.378;20.360;2023-06-10T05:23:48;100253.75;;;20.85;75.68
74542;BME280;63015;45.378;20.360;2023-06-10T05:25:49;100253.94;;;20.99;75.47
74542;BME280;63015;45.378;20.360;2023-06-10T05:27:50;100255.31;;;21.08;75.01
74542;BME280;63015;45.378;20.360;2023-06-10T05:29:50;100256.47;;;21.22;74.77
74542;BME280;63015;45.378;20.360;2023-06-10T05:31:52;100256.66;;;21.36;74.56
74542;BME280;63015;45.378;20.360;2023-06-10T05:33:52;100248.94;;;21.49;74.12
74542;BME280;63015;45.378;20.360;2023-06-10T05:35:53;100258.19;;;21.59;73.64
74542;BME280;63015;45.378;20.360;2023-06-10T05:37:53;100258.66;;;21.67;73.42
74542;BME280;63015;45.378;20.360;2023-06-10T05:39:54;100254.16;;;21.70;73.24
74542;BME280;63015;45.378;20.360;2023-06-10T05:41:55;100265.22;;;21.78;72.80
74542;BME280;63015;45.378;20.360;2023-06-10T05:43:55;100257.03;;;21.82;72.51
74542;BME280;63015;45.378;20.360;2023-06-10T05:45:56;100262.13;;;21.87;72.54
74542;BME280;63015;45.378;20.360;2023-06-10T05:47:56;100258.00;;;21.99;72.46
74542;BME280;63015;45.378;20.360;2023-06-10T05:49:57;100256.09;;;22.01;71.87
74542;BME280;63015;45.378;20.360;2023-06-10T05:51:58;100254.00;;;22.08;72.01
74542;BME280;63015;45.378;20.360;2023-06-10T05:53:59;100248.03;;;22.20;71.89
74542;BME280;63015;45.378;20.360;2023-06-10T05:55:59;100252.41;;;22.04;71.50
74542;BME280;63015;45.378;20.360;2023-06-10T05:58:00;100253.03;;;22.26;71.40
74542;BME280;63015;45.378;20.360;2023-06-10T06:00:01;100250.72;;;22.38;71.08
74542;BME280;63015;45.378;20.360;2023-06-10T06:02:12;100252.13;;;22.61;70.31
74542;BME280;63015;45.378;20.360;2023-06-10T06:04:13;100253.38;;;22.38;68.75
74542;BME280;63015;45.378;20.360;2023-06-10T06:06:14;100251.66;;;22.53;69.35
74542;BME280;63015;45.378;20.360;2023-06-10T06:08:14;100256.44;;;22.79;68.91
74542;BME280;63015;45.378;20.360;2023-06-10T06:10:18;100255.50;;;22.64;68.84
74542;BME280;63015;45.378;20.360;2023-06-10T06:12:18;100259.69;;;22.85;68.55
74542;BME280;63015;45.378;20.360;2023-06-10T06:14:19;100254.19;;;23.21;67.21
74542;BME280;63015;45.378;20.360;2023-06-10T06:16:20;100253.81;;;23.27;67.00
74542;BME280;63015;45.378;20.360;2023-06-10T06:18:20;100255.63;;;23.27;66.70
74542;BME280;63015;45.378;20.360;2023-06-10T06:20:21;100253.75;;;23.29;66.60
74542;BME280;63015;45.378;20.360;2023-06-10T06:22:22;100254.13;;;23.53;66.37
74542;BME280;63015;45.378;20.360;2023-06-10T06:24:23;100258.59;;;24.13;65.33
74542;BME280;63015;45.378;20.360;2023-06-10T06:26:24;100262.56;;;24.66;63.78
74542;BME280;63015;45.378;20.360;2023-06-10T06:28:25;100265.72;;;25.14;62.65
74542;BME280;63015;45.378;20.360;2023-06-10T06:30:29;100252.78;;;25.50;61.15
74542;BME280;63015;45.378;20.360;2023-06-10T06:32:30;100257.56;;;25.85;60.64
74542;BME280;63015;45.378;20.360;2023-06-10T06:34:30;100249.66;;;25.83;59.93
74542;BME280;63015;45.378;20.360;2023-06-10T06:36:32;100255.22;;;25.25;57.75
74542;BME280;63015;45.378;20.360;2023-06-10T06:38:32;100247.13;;;25.27;59.45
74542;BME280;63015;45.378;20.360;2023-06-10T06:40:34;100246.41;;;25.52;58.93
74542;BME280;63015;45.378;20.360;2023-06-10T06:42:34;100243.94;;;26.02;57.72
74542;BME280;63015;45.378;20.360;2023-06-10T06:44:43;100249.94;;;26.57;57.06
74542;BME280;63015;45.378;20.360;2023-06-10T06:46:43;100244.84;;;27.04;56.20
74542;BME280;63015;45.378;20.360;2023-06-10T06:48:44;100247.75;;;27.38;55.48
74542;BME280;63015;45.378;20.360;2023-06-10T06:50:45;100242.75;;;27.69;55.11
74542;BME280;63015;45.378;20.360;2023-06-10T06:52:45;100245.03;;;27.63;54.07
74542;BME280;63015;45.378;20.360;2023-06-10T06:54:46;100248.44;;;27.65;53.86
74542;BME280;63015;45.378;20.360;2023-06-10T06:56:47;100251.31;;;27.86;53.85
74542;BME280;63015;45.378;20.360;2023-06-10T06:58:47;100249.34;;;28.12;52.90
74542;BME280;63015;45.378;20.360;2023-06-10T07:00:49;100249.13;;;28.49;52.38
74542;BME280;63015;45.378;20.360;2023-06-10T07:02:49;100253.19;;;28.66;51.52
74542;BME280;63015;45.378;20.360;2023-06-10T07:04:50;100252.88;;;28.24;51.49
74542;BME280;63015;45.378;20.360;2023-06-10T07:06:51;100248.53;;;28.68;51.18
74542;BME280;63015;45.378;20.360;2023-06-10T07:08:51;100251.81;;;28.95;50.73
74542;BME280;63015;45.378;20.360;2023-06-10T07:10:52;100257.41;;;28.46;50.91
74542;BME280;63015;45.378;20.360;2023-06-10T07:12:53;100259.47;;;28.99;50.10
74542;BME280;63015;45.378;20.360;2023-06-10T07:14:54;100249.78;;;29.31;49.92
74542;BME280;63015;45.378;20.360;2023-06-10T07:16:55;100255.09;;;29.53;48.70
74542;BME280;63015;45.378;20.360;2023-06-10T07:18:55;100247.25;;;29.07;48.55
74542;BME280;63015;45.378;20.360;2023-06-10T07:20:56;100253.19;;;28.78;49.33
74542;BME280;63015;45.378;20.360;2023-06-10T07:22:56;100253.88;;;28.46;50.00
74542;BME280;63015;45.378;20.360;2023-06-10T07:24:57;100258.13;;;28.26;49.55
74542;BME280;63015;45.378;20.360;2023-06-10T07:26:58;100252.75;;;27.30;50.54
74542;BME280;63015;45.378;20.360;2023-06-10T07:28:59;100251.03;;;27.42;51.70
74542;BME280;63015;45.378;20.360;2023-06-10T07:30:59;100249.72;;;27.83;51.49
74542;BME280;63015;45.378;20.360;2023-06-10T07:33:00;100253.59;;;28.15;50.84
74542;BME280;63015;45.378;20.360;2023-06-10T07:35:02;100245.97;;;28.44;48.97
74542;BME280;63015;45.378;20.360;2023-06-10T07:37:03;100242.16;;;28.13;49.90
74542;BME280;63015;45.378;20.360;2023-06-10T07:39:04;100256.66;;;28.21;50.54
74542;BME280;63015;45.378;20.360;2023-06-10T07:41:04;100252.91;;;28.69;49.95
74542;BME280;63015;45.378;20.360;2023-06-10T07:43:05;100246.69;;;28.92;49.52
74542;BME280;63015;45.378;20.360;2023-06-10T07:45:06;100249.59;;;29.11;49.07
74542;BME280;63015;45.378;20.360;2023-06-10T07:47:07;100251.28;;;29.12;48.46
74542;BME280;63015;45.378;20.360;2023-06-10T07:49:08;100251.53;;;28.98;49.22
74542;BME280;63015;45.378;20.360;2023-06-10T07:51:08;100249.28;;;29.37;48.38
74542;BME280;63015;45.378;20.360;2023-06-10T07:53:09;100249.09;;;29.17;48.61
74542;BME280;63015;45.378;20.360;2023-06-10T07:55:10;100243.44;;;29.64;48.29
74542;BME280;63015;45.378;20.360;2023-06-10T07:57:11;100243.41;;;29.97;47.08
74542;BME280;63015;45.378;20.360;2023-06-10T07:59:11;100247.13;;;29.84;46.78
74542;BME280;63015;45.378;20.360;2023-06-10T08:01:12;100247.38;;;29.60;47.43
74542;BME280;63015;45.378;20.360;2023-06-10T08:03:12;100241.78;;;29.52;47.54
74542;BME280;63015;45.378;20.360;2023-06-10T08:05:13;100243.81;;;29.92;47.06
74542;BME280;63015;45.378;20.360;2023-06-10T08:07:14;100245.25;;;29.96;46.80
74542;BME280;63015;45.378;20.360;2023-06-10T08:09:14;100230.97;;;30.27;46.03
74542;BME280;63015;45.378;20.360;2023-06-10T08:11:15;100238.66;;;30.31;45.67
74542;BME280;63015;45.378;20.360;2023-06-10T08:13:15;100232.03;;;30.66;44.70
74542;BME280;63015;45.378;20.360;2023-06-10T08:15:16;100240.69;;;30.39;44.35
74542;BME280;63015;45.378;20.360;2023-06-10T08:17:17;100236.69;;;30.02;45.29
74542;BME280;63015;45.378;20.360;2023-06-10T08:19:17;100231.78;;;29.54;46.17
74542;BME280;63015;45.378;20.360;2023-06-10T08:21:18;100231.66;;;29.00;46.96
74542;BME280;63015;45.378;20.360;2023-06-10T08:23:19;100230.63;;;28.69;47.71
74542;BME280;63015;45.378;20.360;2023-06-10T08:25:20;100232.28;;;28.93;47.89
74542;BME280;63015;45.378;20.360;2023-06-10T08:27:22;100240.25;;;28.83;48.16
74542;BME280;63015;45.378;20.360;2023-06-10T08:29:23;100239.88;;;28.76;49.02
74542;BME280;63015;45.378;20.360;2023-06-10T08:31:23;100234.03;;;28.48;50.28
74542;BME280;63015;45.378;20.360;2023-06-10T08:33:24;100229.84;;;28.10;52.54
74542;BME280;63015;45.378;20.360;2023-06-10T08:35:25;100230.06;;;27.60;54.75
74542;BME280;63015;45.378;20.360;2023-06-10T08:37:25;100229.13;;;27.24;56.71
74542;BME280;63015;45.378;20.360;2023-06-10T08:39:26;100234.06;;;26.93;57.78
74542;BME280;63015;45.378;20.360;2023-06-10T08:41:28;100219.16;;;26.52;59.73
74542;BME280;63015;45.378;20.360;2023-06-10T08:43:43;100215.03;;;26.35;59.23
74542;BME280;63015;45.378;20.360;2023-06-10T08:45:48;100216.84;;;26.21;59.96
74542;BME280;63015;45.378;20.360;2023-06-10T08:47:50;100221.00;;;26.13;59.24
74542;BME280;63015;45.378;20.360;2023-06-10T08:49:54;100209.47;;;26.12;59.52
74542;BME280;63015;45.378;20.360;2023-06-10T08:52:02;100204.47;;;26.07;58.30
74542;BME280;63015;45.378;20.360;2023-06-10T08:54:15;100206.47;;;26.17;58.16
74542;BME280;63015;45.378;20.360;2023-06-10T08:56:19;100213.44;;;26.19;58.93
74542;BME280;63015;45.378;20.360;2023-06-10T08:58:22;100219.00;;;26.16;58.58
74542;BME280;63015;45.378;20.360;2023-06-10T09:00:23;100224.81;;;25.96;58.98
74542;BME280;63015;45.378;20.360;2023-06-10T09:02:25;100226.91;;;25.37;60.60
74542;BME280;63015;45.378;20.360;2023-06-10T09:04:25;100230.59;;;24.80;62.10
74542;BME280;63015;45.378;20.360;2023-06-10T09:06:27;100228.91;;;24.65;62.82
74542;BME280;63015;45.378;20.360;2023-06-10T09:08:28;100223.44;;;24.81;62.12
74542;BME280;63015;45.378;20.360;2023-06-10T09:10:29;100215.84;;;24.74;62.82
74542;BME280;63015;45.378;20.360;2023-06-10T09:12:29;100216.72;;;24.46;63.96
74542;BME280;63015;45.378;20.360;2023-06-10T09:14:30;100209.19;;;24.53;63.41
74542;BME280;63015;45.378;20.360;2023-06-10T09:16:31;100207.19;;;24.56;63.47
74542;BME280;63015;45.378;20.360;2023-06-10T09:18:31;100215.34;;;24.53;63.81
74542;BME280;63015;45.378;20.360;2023-06-10T09:20:32;100210.31;;;24.63;63.81
74542;BME280;63015;45.378;20.360;2023-06-10T09:22:33;100212.41;;;24.14;65.42
74542;BME280;63015;45.378;20.360;2023-06-10T09:24:34;100212.03;;;23.76;65.64
74542;BME280;63015;45.378;20.360;2023-06-10T09:26:34;100209.53;;;24.03;65.92
74542;BME280;63015;45.378;20.360;2023-06-10T09:28:38;100205.09;;;24.33;65.86
74542;BME280;63015;45.378;20.360;2023-06-10T09:30:40;100212.41;;;24.58;64.80
74542;BME280;63015;45.378;20.360;2023-06-10T09:32:41;100215.44;;;24.81;64.50
74542;BME280;63015;45.378;20.360;2023-06-10T09:34:43;100211.75;;;24.69;64.76
74542;BME280;63015;45.378;20.360;2023-06-10T09:36:45;100216.78;;;24.88;63.51
74542;BME280;63015;45.378;20.360;2023-06-10T09:38:46;100206.28;;;24.99;63.04
74542;BME280;63015;45.378;20.360;2023-06-10T09:40:50;100208.72;;;25.02;63.34
74542;BME280;63015;45.378;20.360;2023-06-10T09:43:00;100211.13;;;25.07;64.55
74542;BME280;63015;45.378;20.360;2023-06-10T09:45:05;100208.34;;;25.08;64.04
74542;BME280;63015;45.378;20.360;2023-06-10T09:47:06;100207.06;;;24.87;64.99
74542;BME280;63015;45.378;20.360;2023-06-10T09:49:06;100208.72;;;24.75;64.51
74542;BME280;63015;45.378;20.360;2023-06-10T09:51:09;100216.31;;;24.38;64.67
74542;BME280;63015;45.378;20.360;2023-06-10T09:53:11;100219.03;;;23.93;65.31
74542;BME280;63015;45.378;20.360;2023-06-10T09:55:11;100217.41;;;23.90;65.79
74542;BME280;63015;45.378;20.360;2023-06-10T09:57:12;100221.25;;;23.70;65.77
74542;BME280;63015;45.378;20.360;2023-06-10T09:59:13;100214.81;;;23.89;64.54
74542;BME280;63015;45.378;20.360;2023-06-10T10:01:14;100214.22;;;23.84;64.44
74542;BME280;63015;45.378;20.360;2023-06-10T10:03:22;100217.03;;;23.66;62.50
74542;BME280;63015;45.378;20.360;2023-06-10T10:05:23;100223.66;;;23.59;63.57
74542;BME280;63015;45.378;20.360;2023-06-10T10:07:24;100222.31;;;23.52;63.25
74542;BME280;63015;45.378;20.360;2023-06-10T10:09:24;100214.53;;;23.32;63.47
74542;BME280;63015;45.378;20.360;2023-06-10T10:11:25;100214.38;;;23.20;63.56
74542;BME280;63015;45.378;20.360;2023-06-10T10:13:27;100204.72;;;23.19;64.01
74542;BME280;63015;45.378;20.360;2023-06-10T10:15:31;100209.47;;;23.12;63.39
74542;BME280;63015;45.378;20.360;2023-06-10T10:17:34;100206.50;;;23.18;63.59
74542;BME280;63015;45.378;20.360;2023-06-10T10:19:40;100202.81;;;23.21;63.49
74542;BME280;63015;45.378;20.360;2023-06-10T10:21:59;100205.22;;;23.25;63.23
74542;BME280;63015;45.378;20.360;2023-06-10T10:24:07;100197.53;;;23.35;63.54
74542;BME280;63015;45.378;20.360;2023-06-10T10:26:10;100192.59;;;23.29;63.11
74542;BME280;63015;45.378;20.360;2023-06-10T10:28:12;100201.66;;;23.41;63.12
74542;BME280;63015;45.378;20.360;2023-06-10T10:30:14;100192.56;;;23.45;63.13